Skip to Main Content
SEARCH:
Location Air RH Dwp Precip Type Wind Speed Wind Gust Direction Pavement Temperature Date/Time
Hatem Bridge US 40 E/B 45 100 45 None 5 mph 6 mph SE 55 - 55 3/27/2017 12:24:00 PM
I-270 at I-370 57 90 55 Rain Calm 5 mph SW 66 - 69 3/27/2017 12:20:00 PM
I-270 at MD-109 55 100 55 None Calm 7 mph SW 61 - 61 3/27/2017 12:20:00 PM
I-495 at American Legion Bridge 60 88 56 None 4 mph 9 mph W 69 - 70 3/27/2017 12:20:00 PM
I-68 at MD-219 55 95 54 None 12 mph 24 mph SW 59 - 59 3/27/2017 12:20:00 PM
I-68 at Savage Mt - - - No Data Available - - No Data Available -
I-68 at Sideling Hill 48 100 48 None Calm 4 mph S 54 - 55 3/27/2017 12:20:00 PM
I-68 at WV Line 58 80 52 None 6 mph 15 mph SW 67 - 67 3/27/2017 12:20:00 PM
I-695 at I-83 53 93 51 None Calm 9 mph NE 59 - 60 3/27/2017 12:20:00 PM
I-70 at Fred-Wash Co. 53 100 53 None Calm 9 mph SE 61 - 61 3/27/2017 12:20:00 PM
I-70 at I-695 52 99 52 None 4 mph 8 mph SW 53 - 62 3/27/2017 12:20:00 PM
I-70 at I-81 51 100 51 None Calm 4 mph W 58 - 58 3/27/2017 12:20:00 PM
I-70 at MD-27 52 100 52 None 5 mph 10 mph W 63 - 64 3/27/2017 12:20:00 PM
I-70 at MD-32 53 99 53 None 6 mph 13 mph SW 60 - 65 3/27/2017 12:20:00 PM
I-83 at MD-137 51 100 51 None 4 mph 7 mph SW 60 - 60 3/27/2017 12:20:00 PM
I-95 at I-695 NE - - - No Data Available - - No Data Available -
I-95 at Patuxent River 54 100 54 None Calm 8 mph W 61 - 62 3/27/2017 12:20:00 PM
I-95 at Tydings Bridge 48 94 46 None 4 mph 11 mph E 55 - 55 3/27/2017 12:20:00 PM
I-95/495 at I-295 59 82 54 None 6 mph 9 mph SW 60 - 66 3/27/2017 12:20:00 PM
I-97 at MD-100 54 89 51 None 4 mph 7 mph SW 61 - 62 3/27/2017 12:20:00 PM
I-97 at MD-32 55 85 51 None 7 mph 12 mph N 61 - 64 3/27/2017 12:20:00 PM
MD 20 at MD 21 53 89 50 None 7 mph 9 mph SW 65 - 65 3/27/2017 12:20:00 PM
MD 231 at Patuxent River 65 74 57 None 10 mph 18 mph SW 77 - 81 3/27/2017 12:20:00 PM
MD 260 at Cox Rd 53 87 49 None Calm 4 mph E 76 - 76 3/27/2017 12:20:00 PM
MD-135 at Salt Dome 54 100 54 None 5 mph 12 mph W 62 - 62 3/27/2017 12:20:00 PM
MD-140 at MD-97 51 100 51 None 8 mph 14 mph SW 62 - 62 3/27/2017 12:20:00 PM
MD-200 EB at Bonifant Rd 56 91 53 None Calm Calm S 66 - 66 3/27/2017 12:23:00 PM
MD-200 WB at Muncaster Mill Rd 57 85 52 None 8 mph 15 mph W 65 - 69 3/27/2017 12:23:00 PM
MD-213 at Sassafras River 53 99 53 None Calm Calm W 60 - 60 3/27/2017 12:20:00 PM
MD-24 at Rock St Park 51 100 51 None Calm Calm N 56 - 56 3/27/2017 12:20:00 PM
MD-30 at PA Line 51 100 51 None 6 mph 15 mph S 68 - 68 3/27/2017 12:20:00 PM
MD-301 at MD-305 59 84 54 None 9 mph 14 mph SW 73 - 73 3/27/2017 12:20:00 PM
MD-33 at Knapps Narrows Drawbridge 57 84 53 None 5 mph 7 mph SE 85 - 85 3/27/2017 12:20:00 PM
MD-344 at MD-224 63 80 57 None Calm 7 mph SW 83 - 83 3/27/2017 12:20:00 PM
MD-4 at Patuxent River 68 73 59 None - - No Data Available 79 - 81 3/27/2017 12:20:00 PM
MD-404 at Choptank River 66 73 57 None 10 mph 18 mph SW 78 - 80 3/27/2017 12:20:00 PM
MD-43 at MD-150 49 100 49 None Calm 4 mph S 58 - 60 3/27/2017 12:20:00 PM
MD-51 at Oldtown Salt Dome 51 94 50 None Calm Calm N 61 - 61 3/27/2017 12:20:00 PM
MD-64 at MD-418 52 94 51 None Calm 6 mph NW 61 - 62 3/27/2017 12:20:00 PM
US-1 at Baltimore / Harford Co. Line 51 93 50 None Calm Calm N 58 - 58 3/27/2017 12:20:00 PM
US-1 at Conowingo Dam 48 100 48 None Calm Calm S 57 - 57 3/27/2017 12:20:00 PM
US-13 at US-113 69 65 57 None 12 mph 19 mph SW 90 - 90 3/27/2017 12:20:00 PM
US-13 at US-50 - - - No Data Available - - No Data Available -
US-15 at MD-140 49 94 47 None 5 mph 8 mph S 55 - 57 3/27/2017 12:20:00 PM
US-301 at MD-5 57 100 57 None 4 mph 11 mph S 68 - 70 3/27/2017 12:20:00 PM
US-301 at Potomac 58 81 52 None 4 mph 6 mph N 79 - 81 3/27/2017 12:20:00 PM
US-301 on HWN Bridge 57 89 54 None Calm Calm N 75 - 75 3/27/2017 12:22:00 PM
US-340 at MD-180 50 100 50 None Calm 6 mph SE 59 - 59 3/27/2017 12:20:00 PM
US-50 at Choptank 64 82 58 None 6 mph 14 mph S 76 - 78 3/27/2017 12:20:00 PM
US-50 at I-95 56 97 56 None Calm 6 mph SW 62 - 65 3/27/2017 12:20:00 PM
US-50 at MD-2 53 100 53 None Calm Calm NW 61 - 63 3/27/2017 12:20:00 PM
US-50 at MD-331 65 75 57 None 12 mph 19 mph SW 77 - 78 3/27/2017 12:20:00 PM
US-50 at OC Drawbridge 63 75 55 None 7 mph 21 mph S 91 - 91 3/27/2017 12:20:00 PM
US-50 at Table Rock Rd 53 100 53 Rain Calm 6 mph W 57 - 57 3/27/2017 12:20:00 PM
US-50 Kent Narrow Bridge 54 100 54 None 4 mph 12 mph S 63 - 66 3/27/2017 12:20:00 PM
WPL Pier 31 49 99 49 None Calm Calm N 65 - 65 3/27/2017 12:22:00 PM
Location Air RH Dwp Precip Type Wind Speed Wind Gust Direction Pavement Temperature Date/Time